Terminal Aerodrome Forecast
Issued by NWS

Home | Current Version | Previous Version | Graphics & Text | Print | Product List | Glossary On
Versions: 1 2 3 4 5 6 7 8 9 10 11 12 13 14 15 16 17 18 19 20 21 22 23 24 25 26 27 28 29 30
000
FTUS43 KBIS 251729
TAFMOT
TAF
KMOT 251729Z 2518/2618 02011KT P6SM VCTS SCT035 OVC050CB
      TEMPO 2518/2521 4SM TSRA BKN035 OVC060CB
     FM252100 02006KT P6SM -SHRA OVC040
      TEMPO 2521/2524 4SM TSRA OVC025CB
     FM260000 35012KT P6SM -SHRA OVC035
      TEMPO 2600/2604 4SM TS OVC025CB
     FM260600 32010KT P6SM VCSH OVC020
     FM261000 29007KT 3SM BR OVC003
     FM261400 29008KT P6SM BKN010=

USA.gov is the U.S. government's official web portal to all federal, state and local government web resources and services.